sensor_id;sensor_type;location;lat;lon;timestamp;P1;durP1;ratioP1;P2;durP2;ratioP2
47009;SDS011;59230;54.164;-3.124;2023-02-11T00:01:20;20.98;;;2.47;;
47009;SDS011;59230;54.164;-3.124;2023-02-11T00:03:50;29.60;;;3.30;;
47009;SDS011;59230;54.164;-3.124;2023-02-11T00:06:18;18.27;;;4.70;;
47009;SDS011;59230;54.164;-3.124;2023-02-11T00:08:45;27.80;;;4.10;;
47009;SDS011;59230;54.164;-3.124;2023-02-11T00:11:12;24.00;;;4.00;;
47009;SDS011;59230;54.164;-3.124;2023-02-11T00:13:41;24.65;;;4.13;;
47009;SDS011;59230;54.164;-3.124;2023-02-11T00:16:20;25.75;;;3.45;;
47009;SDS011;59230;54.164;-3.124;2023-02-11T00:18:48;24.80;;;3.42;;
47009;SDS011;59230;54.164;-3.124;2023-02-11T00:21:17;24.20;;;4.22;;
47009;SDS011;59230;54.164;-3.124;2023-02-11T00:23:46;26.40;;;3.47;;
47009;SDS011;59230;54.164;-3.124;2023-02-11T00:26:20;35.08;;;3.03;;
47009;SDS011;59230;54.164;-3.124;2023-02-11T00:28:50;28.20;;;4.10;;
47009;SDS011;59230;54.164;-3.124;2023-02-11T00:31:18;21.80;;;4.25;;
47009;SDS011;59230;54.164;-3.124;2023-02-11T00:33:47;21.90;;;3.40;;
47009;SDS011;59230;54.164;-3.124;2023-02-11T00:36:16;21.05;;;3.05;;
47009;SDS011;59230;54.164;-3.124;2023-02-11T00:38:47;22.08;;;3.28;;
47009;SDS011;59230;54.164;-3.124;2023-02-11T00:41:17;21.25;;;2.85;;
47009;SDS011;59230;54.164;-3.124;2023-02-11T00:43:45;16.23;;;2.50;;
47009;SDS011;59230;54.164;-3.124;2023-02-11T00:46:12;16.38;;;2.75;;
47009;SDS011;59230;54.164;-3.124;2023-02-11T00:48:43;18.95;;;2.35;;
47009;SDS011;59230;54.164;-3.124;2023-02-11T00:51:10;20.48;;;2.58;;
47009;SDS011;59230;54.164;-3.124;2023-02-11T00:53:37;27.25;;;2.70;;
47009;SDS011;59230;54.164;-3.124;2023-02-11T00:56:02;19.45;;;3.53;;
47009;SDS011;59230;54.164;-3.124;2023-02-11T00:58:30;14.88;;;2.50;;
47009;SDS011;59230;54.164;-3.124;2023-02-11T01:00:57;14.85;;;2.40;;
47009;SDS011;59230;54.164;-3.124;2023-02-11T01:06:18;15.15;;;2.38;;
47009;SDS011;59230;54.164;-3.124;2023-02-11T01:08:44;15.43;;;2.70;;
47009;SDS011;59230;54.164;-3.124;2023-02-11T01:11:15;14.18;;;2.42;;
47009;SDS011;59230;54.164;-3.124;2023-02-11T01:13:44;19.58;;;3.08;;
47009;SDS011;59230;54.164;-3.124;2023-02-11T01:16:12;17.67;;;2.55;;
47009;SDS011;59230;54.164;-3.124;2023-02-11T01:18:40;21.15;;;2.70;;
47009;SDS011;59230;54.164;-3.124;2023-02-11T01:21:09;20.75;;;2.30;;
47009;SDS011;59230;54.164;-3.124;2023-02-11T01:23:36;23.10;;;2.60;;
47009;SDS011;59230;54.164;-3.124;2023-02-11T01:26:06;19.65;;;2.45;;
47009;SDS011;59230;54.164;-3.124;2023-02-11T01:28:33;21.98;;;2.90;;
47009;SDS011;59230;54.164;-3.124;2023-02-11T01:31:07;21.60;;;2.53;;
47009;SDS011;59230;54.164;-3.124;2023-02-11T01:33:36;12.50;;;2.58;;
47009;SDS011;59230;54.164;-3.124;2023-02-11T01:36:04;19.30;;;2.80;;
47009;SDS011;59230;54.164;-3.124;2023-02-11T01:38:31;21.80;;;2.60;;
47009;SDS011;59230;54.164;-3.124;2023-02-11T01:40:58;13.85;;;2.38;;
47009;SDS011;59230;54.164;-3.124;2023-02-11T01:43:26;22.10;;;3.05;;
47009;SDS011;59230;54.164;-3.124;2023-02-11T01:46:00;21.10;;;2.50;;
47009;SDS011;59230;54.164;-3.124;2023-02-11T01:51:11;14.35;;;2.92;;
47009;SDS011;59230;54.164;-3.124;2023-02-11T01:53:40;16.80;;;2.50;;
47009;SDS011;59230;54.164;-3.124;2023-02-11T01:56:26;10.55;;;2.13;;
47009;SDS011;59230;54.164;-3.124;2023-02-11T01:59:21;15.32;;;2.47;;
47009;SDS011;59230;54.164;-3.124;2023-02-11T02:01:52;19.88;;;2.70;;
47009;SDS011;59230;54.164;-3.124;2023-02-11T02:04:24;20.40;;;2.05;;
47009;SDS011;59230;54.164;-3.124;2023-02-11T02:07:04;9.00;;;2.10;;
47009;SDS011;59230;54.164;-3.124;2023-02-11T02:11:58;8.88;;;1.83;;
47009;SDS011;59230;54.164;-3.124;2023-02-11T02:14:23;19.90;;;2.70;;
47009;SDS011;59230;54.164;-3.124;2023-02-11T02:16:51;17.70;;;2.03;;
47009;SDS011;59230;54.164;-3.124;2023-02-11T02:32:59;13.68;;;2.25;;
47009;SDS011;59230;54.164;-3.124;2023-02-11T02:40:46;10.05;;;2.25;;
47009;SDS011;59230;54.164;-3.124;2023-02-11T02:43:18;10.40;;;1.70;;
47009;SDS011;59230;54.164;-3.124;2023-02-11T02:45:46;19.55;;;2.60;;
47009;SDS011;59230;54.164;-3.124;2023-02-11T02:48:26;17.10;;;2.30;;
47009;SDS011;59230;54.164;-3.124;2023-02-11T02:50:58;23.33;;;2.78;;
47009;SDS011;59230;54.164;-3.124;2023-02-11T02:57:02;20.25;;;2.38;;
47009;SDS011;59230;54.164;-3.124;2023-02-11T03:00:02;24.90;;;3.13;;
47009;SDS011;59230;54.164;-3.124;2023-02-11T03:08:16;15.00;;;2.47;;
47009;SDS011;59230;54.164;-3.124;2023-02-11T03:10:44;14.20;;;2.10;;
47009;SDS011;59230;54.164;-3.124;2023-02-11T03:13:16;12.52;;;1.80;;
47009;SDS011;59230;54.164;-3.124;2023-02-11T03:15:46;12.45;;;2.00;;
47009;SDS011;59230;54.164;-3.124;2023-02-11T03:18:23;10.82;;;1.83;;
47009;SDS011;59230;54.164;-3.124;2023-02-11T03:20:53;11.82;;;2.25;;
47009;SDS011;59230;54.164;-3.124;2023-02-11T03:23:27;11.90;;;1.50;;
47009;SDS011;59230;54.164;-3.124;2023-02-11T03:26:02;5.13;;;1.42;;
47009;SDS011;59230;54.164;-3.124;2023-02-11T03:37:26;19.80;;;2.25;;
47009;SDS011;59230;54.164;-3.124;2023-02-11T03:40:17;13.93;;;2.25;;
47009;SDS011;59230;54.164;-3.124;2023-02-11T03:42:46;13.85;;;2.38;;
47009;SDS011;59230;54.164;-3.124;2023-02-11T03:45:27;14.95;;;2.13;;
47009;SDS011;59230;54.164;-3.124;2023-02-11T03:48:01;16.40;;;2.30;;
47009;SDS011;59230;54.164;-3.124;2023-02-11T03:50:33;20.73;;;2.75;;
47009;SDS011;59230;54.164;-3.124;2023-02-11T03:53:06;14.25;;;3.08;;
47009;SDS011;59230;54.164;-3.124;2023-02-11T03:55:37;14.05;;;2.00;;
47009;SDS011;59230;54.164;-3.124;2023-02-11T03:58:04;23.95;;;2.65;;
47009;SDS011;59230;54.164;-3.124;2023-02-11T04:00:32;22.13;;;3.25;;
47009;SDS011;59230;54.164;-3.124;2023-02-11T04:03:09;8.82;;;1.70;;
47009;SDS011;59230;54.164;-3.124;2023-02-11T04:05:37;14.70;;;2.28;;
47009;SDS011;59230;54.164;-3.124;2023-02-11T04:08:04;16.33;;;2.80;;
47009;SDS011;59230;54.164;-3.124;2023-02-11T04:10:36;24.63;;;4.38;;
47009;SDS011;59230;54.164;-3.124;2023-02-11T04:13:02;18.33;;;3.03;;
47009;SDS011;59230;54.164;-3.124;2023-02-11T04:15:31;11.25;;;2.05;;
47009;SDS011;59230;54.164;-3.124;2023-02-11T04:17:58;13.15;;;2.03;;
47009;SDS011;59230;54.164;-3.124;2023-02-11T04:20:24;16.38;;;2.28;;
47009;SDS011;59230;54.164;-3.124;2023-02-11T04:22:51;12.77;;;2.67;;
47009;SDS011;59230;54.164;-3.124;2023-02-11T04:25:17;10.63;;;2.00;;
47009;SDS011;59230;54.164;-3.124;2023-02-11T04:27:43;15.98;;;2.42;;
47009;SDS011;59230;54.164;-3.124;2023-02-11T04:30:08;12.45;;;1.98;;
47009;SDS011;59230;54.164;-3.124;2023-02-11T04:32:36;14.30;;;2.30;;
47009;SDS011;59230;54.164;-3.124;2023-02-11T04:35:01;9.85;;;1.92;;
47009;SDS011;59230;54.164;-3.124;2023-02-11T04:37:31;12.52;;;2.33;;
47009;SDS011;59230;54.164;-3.124;2023-02-11T04:39:57;10.77;;;2.20;;
47009;SDS011;59230;54.164;-3.124;2023-02-11T04:42:23;13.30;;;2.50;;
47009;SDS011;59230;54.164;-3.124;2023-02-11T04:44:49;21.80;;;3.72;;
47009;SDS011;59230;54.164;-3.124;2023-02-11T04:47:15;20.00;;;3.65;;
47009;SDS011;59230;54.164;-3.124;2023-02-11T04:49:41;13.85;;;2.50;;
47009;SDS011;59230;54.164;-3.124;2023-02-11T04:52:07;14.32;;;2.55;;
47009;SDS011;59230;54.164;-3.124;2023-02-11T04:54:34;24.85;;;3.40;;
47009;SDS011;59230;54.164;-3.124;2023-02-11T04:57:01;13.07;;;2.55;;
47009;SDS011;59230;54.164;-3.124;2023-02-11T04:59:29;9.70;;;2.10;;
47009;SDS011;59230;54.164;-3.124;2023-02-11T05:01:57;13.00;;;1.88;;
47009;SDS011;59230;54.164;-3.124;2023-02-11T05:04:23;18.30;;;2.40;;
47009;SDS011;59230;54.164;-3.124;2023-02-11T05:06:50;14.27;;;2.63;;
47009;SDS011;59230;54.164;-3.124;2023-02-11T05:09:16;14.25;;;2.17;;
47009;SDS011;59230;54.164;-3.124;2023-02-11T05:11:42;10.07;;;1.80;;
47009;SDS011;59230;54.164;-3.124;2023-02-11T05:14:09;7.68;;;1.75;;
47009;SDS011;59230;54.164;-3.124;2023-02-11T05:16:37;11.32;;;1.67;;
47009;SDS011;59230;54.164;-3.124;2023-02-11T05:19:04;7.72;;;1.33;;
47009;SDS011;59230;54.164;-3.124;2023-02-11T05:21:30;12.00;;;2.05;;
47009;SDS011;59230;54.164;-3.124;2023-02-11T05:23:56;11.52;;;1.90;;
47009;SDS011;59230;54.164;-3.124;2023-02-11T05:26:21;13.30;;;2.05;;
47009;SDS011;59230;54.164;-3.124;2023-02-11T05:28:48;13.75;;;1.60;;
47009;SDS011;59230;54.164;-3.124;2023-02-11T05:31:14;14.27;;;2.28;;
47009;SDS011;59230;54.164;-3.124;2023-02-11T05:33:41;11.95;;;1.48;;
47009;SDS011;59230;54.164;-3.124;2023-02-11T05:36:10;8.05;;;1.33;;
47009;SDS011;59230;54.164;-3.124;2023-02-11T05:38:38;14.40;;;2.00;;
47009;SDS011;59230;54.164;-3.124;2023-02-11T05:41:06;17.63;;;2.17;;
47009;SDS011;59230;54.164;-3.124;2023-02-11T05:43:32;10.57;;;1.73;;
47009;SDS011;59230;54.164;-3.124;2023-02-11T05:46:03;9.98;;;1.80;;
47009;SDS011;59230;54.164;-3.124;2023-02-11T05:48:28;10.80;;;1.42;;
47009;SDS011;59230;54.164;-3.124;2023-02-11T05:50:55;10.68;;;1.73;;
47009;SDS011;59230;54.164;-3.124;2023-02-11T05:53:21;8.52;;;1.45;;
47009;SDS011;59230;54.164;-3.124;2023-02-11T05:55:50;7.05;;;1.67;;
47009;SDS011;59230;54.164;-3.124;2023-02-11T05:58:16;9.73;;;1.95;;
47009;SDS011;59230;54.164;-3.124;2023-02-11T06:00:41;12.55;;;1.70;;
47009;SDS011;59230;54.164;-3.124;2023-02-11T06:03:08;13.77;;;1.58;;
47009;SDS011;59230;54.164;-3.124;2023-02-11T06:05:37;15.65;;;2.17;;
47009;SDS011;59230;54.164;-3.124;2023-02-11T06:08:04;8.88;;;1.55;;
47009;SDS011;59230;54.164;-3.124;2023-02-11T06:10:30;9.20;;;1.77;;
47009;SDS011;59230;54.164;-3.124;2023-02-11T06:12:57;9.32;;;1.83;;
47009;SDS011;59230;54.164;-3.124;2023-02-11T06:15:24;13.32;;;1.70;;
47009;SDS011;59230;54.164;-3.124;2023-02-11T06:17:52;8.38;;;1.45;;
47009;SDS011;59230;54.164;-3.124;2023-02-11T06:20:18;7.90;;;1.50;;
47009;SDS011;59230;54.164;-3.124;2023-02-11T06:22:45;6.90;;;1.63;;
47009;SDS011;59230;54.164;-3.124;2023-02-11T06:25:12;7.72;;;1.35;;
47009;SDS011;59230;54.164;-3.124;2023-02-11T06:27:39;9.40;;;1.60;;
47009;SDS011;59230;54.164;-3.124;2023-02-11T06:30:08;10.75;;;1.67;;
47009;SDS011;59230;54.164;-3.124;2023-02-11T06:32:37;10.98;;;1.52;;
47009;SDS011;59230;54.164;-3.124;2023-02-11T06:35:05;9.77;;;1.33;;
47009;SDS011;59230;54.164;-3.124;2023-02-11T06:37:32;8.32;;;1.73;;
47009;SDS011;59230;54.164;-3.124;2023-02-11T06:39:58;8.77;;;1.30;;
47009;SDS011;59230;54.164;-3.124;2023-02-11T06:42:24;11.93;;;1.30;;
47009;SDS011;59230;54.164;-3.124;2023-02-11T06:44:49;9.88;;;1.70;;
47009;SDS011;59230;54.164;-3.124;2023-02-11T06:47:16;6.80;;;1.70;;
47009;SDS011;59230;54.164;-3.124;2023-02-11T06:49:42;10.75;;;2.45;;
47009;SDS011;59230;54.164;-3.124;2023-02-11T06:52:13;7.35;;;1.27;;
47009;SDS011;59230;54.164;-3.124;2023-02-11T06:54:42;10.18;;;1.40;;
47009;SDS011;59230;54.164;-3.124;2023-02-11T06:57:10;5.70;;;1.17;;
47009;SDS011;59230;54.164;-3.124;2023-02-11T06:59:38;9.55;;;1.60;;
47009;SDS011;59230;54.164;-3.124;2023-02-11T07:02:04;4.15;;;1.33;;
47009;SDS011;59230;54.164;-3.124;2023-02-11T07:04:33;3.90;;;1.20;;
47009;SDS011;59230;54.164;-3.124;2023-02-11T07:06:58;9.13;;;1.38;;
47009;SDS011;59230;54.164;-3.124;2023-02-11T07:09:25;9.90;;;1.58;;
47009;SDS011;59230;54.164;-3.124;2023-02-11T07:11:51;8.82;;;1.45;;
47009;SDS011;59230;54.164;-3.124;2023-02-11T07:14:20;3.03;;;1.08;;
47009;SDS011;59230;54.164;-3.124;2023-02-11T07:16:45;9.60;;;1.17;;
47009;SDS011;59230;54.164;-3.124;2023-02-11T07:19:12;5.75;;;1.10;;
47009;SDS011;59230;54.164;-3.124;2023-02-11T07:21:39;14.23;;;1.35;;
47009;SDS011;59230;54.164;-3.124;2023-02-11T07:24:07;5.35;;;0.90;;
47009;SDS011;59230;54.164;-3.124;2023-02-11T07:26:36;6.75;;;1.20;;
47009;SDS011;59230;54.164;-3.124;2023-02-11T07:29:04;11.82;;;1.08;;
47009;SDS011;59230;54.164;-3.124;2023-02-11T07:31:30;8.10;;;1.30;;
47009;SDS011;59230;54.164;-3.124;2023-02-11T07:33:59;8.55;;;1.08;;
47009;SDS011;59230;54.164;-3.124;2023-02-11T07:36:26;9.48;;;1.50;;
47009;SDS011;59230;54.164;-3.124;2023-02-11T07:38:53;11.80;;;2.10;;
47009;SDS011;59230;54.164;-3.124;2023-02-11T07:41:20;3.05;;;1.05;;
47009;SDS011;59230;54.164;-3.124;2023-02-11T07:43:50;11.23;;;1.30;;
47009;SDS011;59230;54.164;-3.124;2023-02-11T07:46:23;6.00;;;1.17;;
47009;SDS011;59230;54.164;-3.124;2023-02-11T07:48:56;11.77;;;1.67;;
47009;SDS011;59230;54.164;-3.124;2023-02-11T07:51:23;14.63;;;2.08;;
47009;SDS011;59230;54.164;-3.124;2023-02-11T07:53:57;9.93;;;1.95;;
47009;SDS011;59230;54.164;-3.124;2023-02-11T07:56:25;9.43;;;1.58;;
47009;SDS011;59230;54.164;-3.124;2023-02-11T07:58:51;7.15;;;1.58;;
47009;SDS011;59230;54.164;-3.124;2023-02-11T08:01:19;11.30;;;2.08;;
47009;SDS011;59230;54.164;-3.124;2023-02-11T08:03:49;8.40;;;1.77;;
47009;SDS011;59230;54.164;-3.124;2023-02-11T08:06:15;6.82;;;1.30;;
47009;SDS011;59230;54.164;-3.124;2023-02-11T08:08:42;12.27;;;1.38;;
47009;SDS011;59230;54.164;-3.124;2023-02-11T08:11:12;6.18;;;1.67;;
47009;SDS011;59230;54.164;-3.124;2023-02-11T08:13:39;11.63;;;1.30;;
47009;SDS011;59230;54.164;-3.124;2023-02-11T08:16:05;7.30;;;1.27;;
47009;SDS011;59230;54.164;-3.124;2023-02-11T08:18:31;10.20;;;1.60;;
47009;SDS011;59230;54.164;-3.124;2023-02-11T08:21:02;4.60;;;1.33;;
47009;SDS011;59230;54.164;-3.124;2023-02-11T08:23:30;9.45;;;1.30;;
47009;SDS011;59230;54.164;-3.124;2023-02-11T08:26:01;17.45;;;1.88;;
47009;SDS011;59230;54.164;-3.124;2023-02-11T08:28:28;7.25;;;1.65;;
47009;SDS011;59230;54.164;-3.124;2023-02-11T08:30:55;14.10;;;2.28;;
47009;SDS011;59230;54.164;-3.124;2023-02-11T08:33:22;14.20;;;1.70;;
47009;SDS011;59230;54.164;-3.124;2023-02-11T08:35:50;10.63;;;2.03;;
47009;SDS011;59230;54.164;-3.124;2023-02-11T08:38:20;10.82;;;1.92;;
47009;SDS011;59230;54.164;-3.124;2023-02-11T08:40:46;8.38;;;1.85;;
47009;SDS011;59230;54.164;-3.124;2023-02-11T08:43:13;7.68;;;1.73;;
47009;SDS011;59230;54.164;-3.124;2023-02-11T08:45:39;13.40;;;2.00;;
47009;SDS011;59230;54.164;-3.124;2023-02-11T08:48:06;7.05;;;1.58;;
47009;SDS011;59230;54.164;-3.124;2023-02-11T08:50:32;10.35;;;1.67;;
47009;SDS011;59230;54.164;-3.124;2023-02-11T08:52:58;11.13;;;1.60;;
47009;SDS011;59230;54.164;-3.124;2023-02-11T08:55:23;11.10;;;1.95;;
47009;SDS011;59230;54.164;-3.124;2023-02-11T08:57:51;6.00;;;1.85;;
47009;SDS011;59230;54.164;-3.124;2023-02-11T09:00:19;14.07;;;1.80;;
47009;SDS011;59230;54.164;-3.124;2023-02-11T09:02:45;8.18;;;1.25;;
47009;SDS011;59230;54.164;-3.124;2023-02-11T09:05:11;6.70;;;1.38;;
47009;SDS011;59230;54.164;-3.124;2023-02-11T09:07:40;11.52;;;1.45;;
47009;SDS011;59230;54.164;-3.124;2023-02-11T09:10:06;8.70;;;1.42;;
47009;SDS011;59230;54.164;-3.124;2023-02-11T09:12:34;8.40;;;1.38;;
47009;SDS011;59230;54.164;-3.124;2023-02-11T09:15:01;9.07;;;1.60;;
47009;SDS011;59230;54.164;-3.124;2023-02-11T09:17:26;10.93;;;1.80;;
47009;SDS011;59230;54.164;-3.124;2023-02-11T09:19:53;9.30;;;1.75;;
47009;SDS011;59230;54.164;-3.124;2023-02-11T09:22:19;9.07;;;1.42;;
47009;SDS011;59230;54.164;-3.124;2023-02-11T09:24:45;13.07;;;1.25;;
47009;SDS011;59230;54.164;-3.124;2023-02-11T09:27:10;13.18;;;1.55;;
47009;SDS011;59230;54.164;-3.124;2023-02-11T09:29:36;6.07;;;1.75;;
47009;SDS011;59230;54.164;-3.124;2023-02-11T09:32:04;9.95;;;1.55;;
47009;SDS011;59230;54.164;-3.124;2023-02-11T09:34:31;5.93;;;1.27;;
47009;SDS011;59230;54.164;-3.124;2023-02-11T09:36:56;9.43;;;1.65;;
47009;SDS011;59230;54.164;-3.124;2023-02-11T09:39:22;10.48;;;1.70;;
47009;SDS011;59230;54.164;-3.124;2023-02-11T09:41:58;11.32;;;1.67;;
47009;SDS011;59230;54.164;-3.124;2023-02-11T09:44:32;11.38;;;1.52;;
47009;SDS011;59230;54.164;-3.124;2023-02-11T09:49:55;9.93;;;1.67;;
47009;SDS011;59230;54.164;-3.124;2023-02-11T09:52:51;5.80;;;1.25;;
47009;SDS011;59230;54.164;-3.124;2023-02-11T09:55:34;18.83;;;1.95;;
47009;SDS011;59230;54.164;-3.124;2023-02-11T09:58:13;7.53;;;1.58;;
47009;SDS011;59230;54.164;-3.124;2023-02-11T10:11:40;10.95;;;2.00;;
47009;SDS011;59230;54.164;-3.124;2023-02-11T10:20:07;4.93;;;1.25;;
47009;SDS011;59230;54.164;-3.124;2023-02-11T10:22:44;9.07;;;1.55;;
47009;SDS011;59230;54.164;-3.124;2023-02-11T10:27:54;10.27;;;1.90;;
47009;SDS011;59230;54.164;-3.124;2023-02-11T10:33:11;10.32;;;1.40;;
47009;SDS011;59230;54.164;-3.124;2023-02-11T10:35:53;8.57;;;1.55;;
47009;SDS011;59230;54.164;-3.124;2023-02-11T10:38:21;8.18;;;1.67;;
47009;SDS011;59230;54.164;-3.124;2023-02-11T10:40:52;9.02;;;1.63;;
47009;SDS011;59230;54.164;-3.124;2023-02-11T10:43:23;9.95;;;1.70;;
47009;SDS011;59230;54.164;-3.124;2023-02-11T10:45:54;5.85;;;1.00;;
47009;SDS011;59230;54.164;-3.124;2023-02-11T10:56:50;7.55;;;1.30;;
47009;SDS011;59230;54.164;-3.124;2023-02-11T10:59:29;9.98;;;1.30;;
47009;SDS011;59230;54.164;-3.124;2023-02-11T11:02:00;7.32;;;1.60;;
47009;SDS011;59230;54.164;-3.124;2023-02-11T11:07:12;9.38;;;1.85;;
47009;SDS011;59230;54.164;-3.124;2023-02-11T11:09:54;8.75;;;1.75;;
47009;SDS011;59230;54.164;-3.124;2023-02-11T11:12:54;7.75;;;1.77;;
47009;SDS011;59230;54.164;-3.124;2023-02-11T11:15:23;10.80;;;1.40;;
47009;SDS011;59230;54.164;-3.124;2023-02-11T11:18:27;15.50;;;1.73;;
47009;SDS011;59230;54.164;-3.124;2023-02-11T11:20:59;11.48;;;1.70;;
47009;SDS011;59230;54.164;-3.124;2023-02-11T11:23:29;6.88;;;2.60;;
47009;SDS011;59230;54.164;-3.124;2023-02-11T11:26:00;11.32;;;3.42;;
47009;SDS011;59230;54.164;-3.124;2023-02-11T11:28:56;20.13;;;7.78;;
47009;SDS011;59230;54.164;-3.124;2023-02-11T11:31:46;10.07;;;3.30;;
47009;SDS011;59230;54.164;-3.124;2023-02-11T11:34:30;11.13;;;2.78;;
47009;SDS011;59230;54.164;-3.124;2023-02-11T11:37:00;5.30;;;1.70;;
47009;SDS011;59230;54.164;-3.124;2023-02-11T11:39:39;7.95;;;1.90;;
47009;SDS011;59230;54.164;-3.124;2023-02-11T11:42:19;5.43;;;2.05;;
47009;SDS011;59230;54.164;-3.124;2023-02-11T11:44:59;4.28;;;1.20;;
47009;SDS011;59230;54.164;-3.124;2023-02-11T11:58:37;2.63;;;0.93;;
47009;SDS011;59230;54.164;-3.124;2023-02-11T12:16:38;3.17;;;0.93;;
47009;SDS011;59230;54.164;-3.124;2023-02-11T12:21:54;11.10;;;1.00;;
47009;SDS011;59230;54.164;-3.124;2023-02-11T12:39:29;2.80;;;0.77;;
47009;SDS011;59230;54.164;-3.124;2023-02-11T12:55:46;1.52;;;0.68;;
47009;SDS011;59230;54.164;-3.124;2023-02-11T12:58:22;1.75;;;0.70;;
47009;SDS011;59230;54.164;-3.124;2023-02-11T13:01:06;3.78;;;1.00;;
47009;SDS011;59230;54.164;-3.124;2023-02-11T13:03:56;3.10;;;0.80;;
47009;SDS011;59230;54.164;-3.124;2023-02-11T13:06:56;2.92;;;0.70;;
47009;SDS011;59230;54.164;-3.124;2023-02-11T13:09:48;5.55;;;0.73;;
47009;SDS011;59230;54.164;-3.124;2023-02-11T13:12:21;1.42;;;0.60;;
47009;SDS011;59230;54.164;-3.124;2023-02-11T13:15:08;4.00;;;0.65;;
47009;SDS011;59230;54.164;-3.124;2023-02-11T13:17:43;5.95;;;0.93;;
47009;SDS011;59230;54.164;-3.124;2023-02-11T13:20:38;1.92;;;0.73;;
47009;SDS011;59230;54.164;-3.124;2023-02-11T13:26:04;3.25;;;0.70;;
47009;SDS011;59230;54.164;-3.124;2023-02-11T13:31:25;3.00;;;0.98;;
47009;SDS011;59230;54.164;-3.124;2023-02-11T13:33:53;4.78;;;1.17;;
47009;SDS011;59230;54.164;-3.124;2023-02-11T13:36:26;3.63;;;0.80;;
47009;SDS011;59230;54.164;-3.124;2023-02-11T13:41:27;5.28;;;0.95;;
47009;SDS011;59230;54.164;-3.124;2023-02-11T13:43:59;3.35;;;1.10;;
47009;SDS011;59230;54.164;-3.124;2023-02-11T13:49:36;4.38;;;1.10;;
47009;SDS011;59230;54.164;-3.124;2023-02-11T13:52:15;6.70;;;1.50;;
47009;SDS011;59230;54.164;-3.124;2023-02-11T13:54:50;6.35;;;1.77;;
47009;SDS011;59230;54.164;-3.124;2023-02-11T14:03:16;6.22;;;2.10;;
47009;SDS011;59230;54.164;-3.124;2023-02-11T14:06:14;6.72;;;1.83;;
47009;SDS011;59230;54.164;-3.124;2023-02-11T14:11:52;6.07;;;1.80;;
47009;SDS011;59230;54.164;-3.124;2023-02-11T14:17:29;4.32;;;1.42;;
47009;SDS011;59230;54.164;-3.124;2023-02-11T14:20:02;11.35;;;1.83;;
47009;SDS011;59230;54.164;-3.124;2023-02-11T14:22:41;6.68;;;1.83;;
47009;SDS011;59230;54.164;-3.124;2023-02-11T14:25:15;6.95;;;2.30;;
47009;SDS011;59230;54.164;-3.124;2023-02-11T14:33:51;8.45;;;3.13;;
47009;SDS011;59230;54.164;-3.124;2023-02-11T14:42:09;5.85;;;1.70;;
47009;SDS011;59230;54.164;-3.124;2023-02-11T14:44:44;8.80;;;1.65;;
47009;SDS011;59230;54.164;-3.124;2023-02-11T14:47:15;6.63;;;1.30;;
47009;SDS011;59230;54.164;-3.124;2023-02-11T14:49:45;6.07;;;1.30;;
47009;SDS011;59230;54.164;-3.124;2023-02-11T14:52:33;8.10;;;1.50;;
47009;SDS011;59230;54.164;-3.124;2023-02-11T14:55:11;8.75;;;1.80;;
47009;SDS011;59230;54.164;-3.124;2023-02-11T15:03:35;10.15;;;3.15;;
47009;SDS011;59230;54.164;-3.124;2023-02-11T15:06:06;13.82;;;4.80;;
47009;SDS011;59230;54.164;-3.124;2023-02-11T15:08:41;12.90;;;4.32;;
47009;SDS011;59230;54.164;-3.124;2023-02-11T15:11:15;12.30;;;4.32;;
47009;SDS011;59230;54.164;-3.124;2023-02-11T15:13:44;17.27;;;4.88;;
47009;SDS011;59230;54.164;-3.124;2023-02-11T15:16:17;10.60;;;4.70;;
47009;SDS011;59230;54.164;-3.124;2023-02-11T15:21:28;12.52;;;4.43;;
47009;SDS011;59230;54.164;-3.124;2023-02-11T15:26:44;16.73;;;4.40;;
47009;SDS011;59230;54.164;-3.124;2023-02-11T15:29:16;16.05;;;4.88;;
47009;SDS011;59230;54.164;-3.124;2023-02-11T15:31:41;12.20;;;4.25;;
47009;SDS011;59230;54.164;-3.124;2023-02-11T15:34:08;16.20;;;5.00;;
47009;SDS011;59230;54.164;-3.124;2023-02-11T15:36:34;14.60;;;3.97;;
47009;SDS011;59230;54.164;-3.124;2023-02-11T15:44:49;10.82;;;3.58;;
47009;SDS011;59230;54.164;-3.124;2023-02-11T15:47:33;16.27;;;3.60;;
47009;SDS011;59230;54.164;-3.124;2023-02-11T15:49:59;12.52;;;3.42;;
47009;SDS011;59230;54.164;-3.124;2023-02-11T15:52:25;12.13;;;3.30;;
47009;SDS011;59230;54.164;-3.124;2023-02-11T15:54:53;14.48;;;3.67;;
47009;SDS011;59230;54.164;-3.124;2023-02-11T15:57:27;9.10;;;3.15;;
47009;SDS011;59230;54.164;-3.124;2023-02-11T15:59:54;16.95;;;3.42;;
47009;SDS011;59230;54.164;-3.124;2023-02-11T16:02:30;15.20;;;2.95;;
47009;SDS011;59230;54.164;-3.124;2023-02-11T16:07:43;9.07;;;2.40;;
47009;SDS011;59230;54.164;-3.124;2023-02-11T16:10:22;8.30;;;2.47;;
47009;SDS011;59230;54.164;-3.124;2023-02-11T16:13:22;13.48;;;2.88;;
47009;SDS011;59230;54.164;-3.124;2023-02-11T16:15:55;14.43;;;4.05;;
47009;SDS011;59230;54.164;-3.124;2023-02-11T16:18:31;13.23;;;3.97;;
47009;SDS011;59230;54.164;-3.124;2023-02-11T16:21:04;15.90;;;4.15;;
47009;SDS011;59230;54.164;-3.124;2023-02-11T16:23:40;16.20;;;3.38;;
47009;SDS011;59230;54.164;-3.124;2023-02-11T16:29:04;17.17;;;3.67;;
47009;SDS011;59230;54.164;-3.124;2023-02-11T16:31:51;13.82;;;4.43;;
47009;SDS011;59230;54.164;-3.124;2023-02-11T16:34:22;11.10;;;3.40;;
47009;SDS011;59230;54.164;-3.124;2023-02-11T16:36:49;12.40;;;3.05;;
47009;SDS011;59230;54.164;-3.124;2023-02-11T16:39:16;12.07;;;3.10;;
47009;SDS011;59230;54.164;-3.124;2023-02-11T16:41:46;8.70;;;2.65;;
47009;SDS011;59230;54.164;-3.124;2023-02-11T16:44:18;10.68;;;2.17;;
47009;SDS011;59230;54.164;-3.124;2023-02-11T16:46:48;7.70;;;2.55;;
47009;SDS011;59230;54.164;-3.124;2023-02-11T16:49:19;6.32;;;2.15;;
47009;SDS011;59230;54.164;-3.124;2023-02-11T16:51:58;10.10;;;2.30;;
47009;SDS011;59230;54.164;-3.124;2023-02-11T16:54:28;9.52;;;1.67;;
47009;SDS011;59230;54.164;-3.124;2023-02-11T16:56:54;10.25;;;2.10;;
47009;SDS011;59230;54.164;-3.124;2023-02-11T16:59:21;5.65;;;1.90;;
47009;SDS011;59230;54.164;-3.124;2023-02-11T17:01:48;16.10;;;3.92;;
47009;SDS011;59230;54.164;-3.124;2023-02-11T17:04:22;15.50;;;3.92;;
47009;SDS011;59230;54.164;-3.124;2023-02-11T17:06:54;16.75;;;5.03;;
47009;SDS011;59230;54.164;-3.124;2023-02-11T17:09:21;21.60;;;4.95;;
47009;SDS011;59230;54.164;-3.124;2023-02-11T17:11:50;18.55;;;5.20;;
47009;SDS011;59230;54.164;-3.124;2023-02-11T17:14:17;16.92;;;4.65;;
47009;SDS011;59230;54.164;-3.124;2023-02-11T17:16:44;15.00;;;4.55;;
47009;SDS011;59230;54.164;-3.124;2023-02-11T17:19:12;12.32;;;5.80;;
47009;SDS011;59230;54.164;-3.124;2023-02-11T17:21:41;17.98;;;4.68;;
47009;SDS011;59230;54.164;-3.124;2023-02-11T17:24:09;20.13;;;4.07;;
47009;SDS011;59230;54.164;-3.124;2023-02-11T17:26:36;10.27;;;4.13;;
47009;SDS011;59230;54.164;-3.124;2023-02-11T17:29:06;13.43;;;4.30;;
47009;SDS011;59230;54.164;-3.124;2023-02-11T17:31:36;16.58;;;4.63;;
47009;SDS011;59230;54.164;-3.124;2023-02-11T17:34:05;18.63;;;6.10;;
47009;SDS011;59230;54.164;-3.124;2023-02-11T17:36:32;19.95;;;8.30;;
47009;SDS011;59230;54.164;-3.124;2023-02-11T17:38:59;27.52;;;10.35;;
47009;SDS011;59230;54.164;-3.124;2023-02-11T17:41:27;19.92;;;9.60;;
47009;SDS011;59230;54.164;-3.124;2023-02-11T17:43:56;23.63;;;9.43;;
47009;SDS011;59230;54.164;-3.124;2023-02-11T17:46:22;17.38;;;7.47;;
47009;SDS011;59230;54.164;-3.124;2023-02-11T17:48:47;16.52;;;5.75;;
47009;SDS011;59230;54.164;-3.124;2023-02-11T17:51:24;17.67;;;5.82;;
47009;SDS011;59230;54.164;-3.124;2023-02-11T17:53:52;13.77;;;4.90;;
47009;SDS011;59230;54.164;-3.124;2023-02-11T17:56:18;14.52;;;5.47;;
47009;SDS011;59230;54.164;-3.124;2023-02-11T17:58:47;14.68;;;5.45;;
47009;SDS011;59230;54.164;-3.124;2023-02-11T18:01:14;14.18;;;5.20;;
47009;SDS011;59230;54.164;-3.124;2023-02-11T18:03:44;11.45;;;4.30;;